< Cyclone 194703 1947 Season Cyclone 194705 >
Cyclone 194704 (unnamed)
General InformationTrack Information on Google Maps || ResourceGoogle EarthGE AnimationAtom FeedGeoJSON
Detalied Best Track (Time Zone = UTC)
Year Month Day Hour Lat. Long. Pressure (hPa) Wind (kt) Class Image Chart
1947 2 1 23 -12.5 146.9 1000 0 0 -- --
1947 2 2 23 -14.9 147.6 996 0 0 -- --
1947 2 3 23 -17.3 146.8 1000 0 0 -- --
1947 2 4 04 -18.1 146.1 1000.2 0 0 -- --
1947 2 4 09 -18.9 145.9 1000.4 0 0 -- --
1947 2 4 14 -19.5 146.2 1000.6 0 0 -- --
1947 2 4 19 -19.4 147.1 1000.8 0 0 -- --
1947 2 4 23 -19.1 147.8 1001 0 0 -- --
1947 2 5 23 -18.1 148.2 1001 0 0 -- --
1947 2 6 23 -17.4 148.3 1003 0 0 -- --
1947 2 7 23 -17.0 148.5 1003 0 0 -- --
1947 2 8 23 -17.5 148.8 1003 0 0 -- --
1947 2 9 23 -19.1 149.5 1002 0 0 -- --
1947 2 10 11 -21.2 150.5 1002 0 0 -- --
1947 2 10 15 -22.2 150.2 1002 0 0 -- --
1947 2 10 23 -23.6 149.6 1002 0 0 -- --
1947 2 11 09 -24.7 150.3 1002 0 0 -- --
1947 2 11 21 -24.6 152.1 1002 0 0 -- --
1947 2 11 23 -24.6 152.3 1002 0 0 -- --
1947 2 12 05 -25.3 152.6 1001.67 0 0 -- --
1947 2 12 23 -26.9 152.8 1001.33 0 0 -- --
1947 2 13 23 -24.9 154.5 1001 0 0 -- --
1947 2 14 23 -22.9 153.6 1003 0 0 -- --
< Cyclone 194703 1947 Season Cyclone 194705 >

Help